Time;durP1;ratioP1;P1;durP2;ratioP2;P2;SDS_P1;SDS_P2;PMS_P1;PMS_P2;Temp;Humidity;BMP_temperature;BMP_pressure;BME280_temperature;BME280_humidity;BME280_pressure;Samples;Min_cycle;Max_cycle;Signal;HPM_P1;HPM_P2
2022/10/28 00:02:12;;;;;;;72.90;54.90;;;;;;;11.17;86.33;101127.36;99971;1287;108295;-75
2022/10/28 00:04:39;;;;;;;58.70;43.80;;;;;;;11.15;86.47;101120.63;100053;1291;95114;-75
2022/10/28 00:07:07;;;;;;;58.80;42.60;;;;;;;11.14;86.52;101124.45;99973;1289;138055;-76
2022/10/28 00:09:34;;;;;;;63.80;45.90;;;;;;;11.15;86.82;101124.29;100083;1298;106530;-76
2022/10/28 00:12:01;;;;;;;64.40;47.70;;;;;;;11.14;86.95;101125.86;99924;1297;138584;-76
2022/10/28 00:14:29;;;;;;;60.00;43.20;;;;;;;11.13;87.03;101125.52;100047;1291;107332;-76
2022/10/28 00:16:56;;;;;;;54.10;40.90;;;;;;;11.10;87.15;101124.17;99972;1288;95130;-76
2022/10/28 00:19:24;;;;;;;52.80;39.80;;;;;;;11.09;87.04;101124.55;100014;1289;137800;-76
2022/10/28 00:21:51;;;;;;;53.20;39.30;;;;;;;11.09;87.19;101125.78;100039;1291;107405;-76
2022/10/28 00:24:18;;;;;;;44.80;34.60;;;;;;;11.07;87.15;101126.00;99904;1288;138518;-76
2022/10/28 00:26:45;;;;;;;50.20;36.80;;;;;;;11.06;87.27;101122.88;99989;1295;108505;-76
2022/10/28 00:29:15;;;;;;;44.60;35.20;;;;;;;11.04;87.31;101125.36;99924;1288;138507;-76
2022/10/28 00:31:42;;;;;;;47.40;34.60;;;;;;;11.03;87.43;101124.86;100010;1289;108336;-76
2022/10/28 00:34:14;;;;;;;43.50;33.90;;;;;;;11.02;87.41;101128.35;100042;1292;107379;-76
2022/10/28 00:36:43;;;;;;;45.00;34.00;;;;;;;10.99;87.38;101119.04;99966;1294;138195;-76
2022/10/28 00:39:13;;;;;;;43.30;33.10;;;;;;;10.98;87.28;101111.06;100042;1288;107466;-76
2022/10/28 00:41:42;;;;;;;42.60;32.50;;;;;;;10.96;87.32;101107.78;100045;1294;139922;-75
2022/10/28 00:44:40;;;;;;;52.60;33.50;;;;;;;10.94;87.27;101105.73;100038;1289;108419;-75
2022/10/28 00:47:15;;;;;;;106.10;33.00;;;;;;;10.90;87.42;101104.40;99876;1291;108514;-76
2022/10/28 00:49:45;;;;;;;70.30;33.00;;;;;;;10.87;87.56;101107.60;100068;1286;95138;-75
2022/10/28 00:52:16;;;;;;;89.80;33.10;;;;;;;10.82;87.59;101104.41;100049;1295;107904;-76
2022/10/28 00:54:45;;;;;;;120.10;32.20;;;;;;;10.77;87.69;101101.89;99938;1288;138734;-77
2022/10/28 00:57:15;;;;;;;144.80;32.60;;;;;;;10.72;87.73;101099.36;100111;1289;108072;-76
2022/10/28 00:59:47;;;;;;;148.90;34.30;;;;;;;10.67;87.80;101097.02;99984;1298;138540;-76
2022/10/28 01:02:14;;;;;;;119.20;29.70;;;;;;;10.63;87.72;101094.33;100006;1289;97277;-76
2022/10/28 01:04:43;;;;;;;199.90;34.80;;;;;;;10.58;87.79;101096.30;99994;1291;107695;-75
2022/10/28 01:07:10;;;;;;;113.30;34.20;;;;;;;10.54;87.80;101096.58;99921;1291;138338;-76
2022/10/28 01:09:38;;;;;;;181.60;32.90;;;;;;;10.49;87.81;101093.02;100069;1295;108775;-75
2022/10/28 01:12:14;;;;;;;216.60;34.40;;;;;;;10.43;87.72;101092.98;99933;1295;138648;-76
2022/10/28 01:14:55;;;;;;;125.90;33.10;;;;;;;10.38;87.98;101094.95;100147;1294;98095;-76
2022/10/28 01:17:34;;;;;;;165.70;34.00;;;;;;;10.35;88.09;101095.37;100617;1297;138603;-77
2022/10/28 01:20:47;;;;;;;144.40;33.60;;;;;;;10.29;88.20;101093.02;99980;1290;96594;-76
2022/10/28 01:23:22;;;;;;;170.20;32.90;;;;;;;10.24;88.34;101096.61;99607;1292;109348;-77
2022/10/28 01:26:25;;;;;;;165.80;33.20;;;;;;;10.19;88.45;101095.08;99611;1294;106729;-76
2022/10/28 01:29:12;;;;;;;140.60;33.50;;;;;;;10.15;88.61;101097.23;99654;1281;98182;-76
2022/10/28 01:31:41;;;;;;;;;;;;;;;10.11;88.66;101092.10;99650;1295;108595;-77
2022/10/28 01:34:18;;;;;;;171.00;32.70;;;;;;;10.08;88.82;101090.23;99568;1300;96677;-77
2022/10/28 01:36:56;;;;;;;148.00;32.00;;;;;;;10.03;88.68;101090.65;99893;1293;139593;-77
2022/10/28 01:39:30;;;;;;;197.70;32.10;;;;;;;9.99;88.77;101083.77;99549;1295;107664;-76
2022/10/28 01:42:07;;;;;;;174.20;29.60;;;;;;;9.95;88.65;101085.58;99430;1295;139295;-76
2022/10/28 01:44:43;;;;;;;199.00;31.40;;;;;;;9.92;88.63;101085.11;99609;1299;107452;-76
2022/10/28 01:47:14;;;;;;;125.50;30.10;;;;;;;9.88;88.55;101082.91;101112;1299;95031;-76
2022/10/28 01:49:49;;;;;;;101.40;29.10;;;;;;;9.83;88.44;101077.94;101154;1294;109824;-77
2022/10/28 01:52:21;;;;;;;110.10;28.40;;;;;;;9.80;88.63;101078.00;101088;1300;109237;-77
2022/10/28 01:54:52;;;;;;;69.20;28.50;;;;;;;9.79;88.69;101078.55;101019;1288;139368;-76
2022/10/28 01:57:23;;;;;;;60.20;28.30;;;;;;;9.78;89.01;101084.29;101159;1295;107547;-77
2022/10/28 01:59:51;;;;;;;54.40;29.10;;;;;;;9.79;89.36;101088.09;100267;1297;138679;-76
2022/10/28 02:02:19;;;;;;;57.80;30.20;;;;;;;9.81;89.55;101094.30;100021;1282;110206;-76
2022/10/28 02:04:46;;;;;;;47.60;29.10;;;;;;;9.84;89.79;101089.57;100068;1294;106591;-76
2022/10/28 02:07:15;;;;;;;49.40;30.60;;;;;;;9.87;89.98;101087.79;100034;1285;138325;-77
2022/10/28 02:09:59;;;;;;;69.00;28.70;;;;;;;9.90;89.93;101084.80;100052;1294;108826;-76
2022/10/28 02:12:30;;;;;;;100.90;29.10;;;;;;;9.90;90.18;101077.67;99971;1289;139427;-76
2022/10/28 02:15:19;;;;;;;94.40;29.10;;;;;;;9.89;90.06;101075.61;100018;1287;109014;-77
2022/10/28 02:18:08;;;;;;;100.30;27.90;;;;;;;9.86;89.68;101068.51;99903;1289;140152;-77
2022/10/28 02:20:43;;;;;;;99.40;27.70;;;;;;;9.82;89.46;101062.68;100056;1288;96501;-77
2022/10/28 02:23:22;;;;;;;95.80;28.20;;;;;;;9.78;89.36;101062.23;100052;1289;106910;-77
2022/10/28 02:25:56;;;;;;;146.40;28.10;;;;;;;9.73;89.33;101053.64;101590;1289;94509;-77
2022/10/28 02:28:32;;;;;;;121.30;28.20;;;;;;;9.70;89.37;101051.95;101601;1289;110421;-76
2022/10/28 02:31:05;;;;;;;116.30;27.50;;;;;;;9.67;89.39;101054.74;101433;1291;138909;-76
2022/10/28 02:33:38;;;;;;;69.20;26.20;;;;;;;9.63;89.30;101048.40;101554;1289;94576;-78
2022/10/28 02:36:09;;;;;;;88.30;28.60;;;;;;;9.60;89.45;101053.83;101479;1295;138184;-78
2022/10/28 02:38:40;;;;;;;90.60;28.40;;;;;;;9.57;89.49;101049.02;101569;1289;94418;-77
2022/10/28 02:41:14;;;;;;;102.30;31.90;;;;;;;9.55;89.61;101044.53;100540;1288;110881;-77
2022/10/28 02:43:46;;;;;;;78.30;32.20;;;;;;;9.52;89.60;101037.64;99937;1287;138140;-77
2022/10/28 02:46:16;;;;;;;69.90;31.40;;;;;;;9.50;89.91;101032.95;99991;1294;95636;-77
2022/10/28 02:48:48;;;;;;;60.60;30.50;;;;;;;9.50;90.13;101031.23;99883;1294;138041;-76
2022/10/28 02:51:18;;;;;;;50.80;31.50;;;;;;;9.49;90.18;101030.71;100098;1289;96489;-77
2022/10/28 02:53:56;;;;;;;44.70;30.00;;;;;;;9.49;90.54;101028.98;99946;1289;138200;-77
2022/10/28 02:56:23;;;;;;;37.60;28.30;;;;;;;9.49;90.60;101028.45;100073;1288;107183;-77
2022/10/28 02:58:50;;;;;;;55.90;29.10;;;;;;;9.48;90.59;101030.05;100090;1294;96476;-76
2022/10/28 03:01:18;;;;;;;49.10;29.50;;;;;;;9.45;90.54;101029.06;99899;1288;138242;-77
2022/10/28 03:03:45;;;;;;;45.30;29.50;;;;;;;9.43;90.50;101027.70;100025;1287;96501;-77
2022/10/28 03:06:12;;;;;;;69.30;28.50;;;;;;;9.42;90.55;101027.54;99963;1288;139032;-77
2022/10/28 03:08:40;;;;;;;51.90;28.30;;;;;;;9.41;90.42;101027.20;100040;1288;109016;-77
2022/10/28 03:11:07;;;;;;;37.10;27.00;;;;;;;9.39;90.57;101023.25;100076;1291;96386;-77
2022/10/28 03:13:34;;;;;;;44.00;27.60;;;;;;;9.40;90.40;101034.86;99929;1292;138899;-77
2022/10/28 03:16:01;;;;;;;63.50;26.40;;;;;;;9.40;90.52;101035.55;100083;1287;96537;-77
2022/10/28 03:18:28;;;;;;;48.40;27.60;;;;;;;9.38;90.23;101031.06;100007;1289;138025;-77
2022/10/28 03:20:56;;;;;;;51.50;27.30;;;;;;;9.37;90.19;101031.27;100069;1289;108559;-77
2022/10/28 03:23:25;;;;;;;60.00;26.40;;;;;;;9.36;90.18;101030.58;99998;1288;138566;-77
2022/10/28 03:25:52;;;;;;;44.20;25.80;;;;;;;9.36;90.32;101029.72;100042;1289;107430;-77
2022/10/28 03:28:19;;;;;;;45.20;26.10;;;;;;;9.36;90.20;101029.38;99989;1293;96366;-77
2022/10/28 03:30:46;;;;;;;37.70;26.90;;;;;;;9.35;90.14;101027.14;99925;1288;137938;-77
2022/10/28 03:33:14;;;;;;;36.80;26.20;;;;;;;9.33;90.15;101026.11;100120;1289;105674;-77
2022/10/28 03:35:41;;;;;;;50.30;25.70;;;;;;;9.32;90.02;101026.63;99924;1288;138978;-76
2022/10/28 03:38:09;;;;;;;46.20;25.70;;;;;;;9.30;89.80;101025.63;100029;1289;109001;-76
2022/10/28 03:40:36;;;;;;;31.80;26.40;;;;;;;9.28;89.75;101028.95;100109;1294;96474;-77
2022/10/28 03:43:03;;;;;;;41.10;27.10;;;;;;;9.26;89.78;101027.77;99952;1302;139161;-78
2022/10/28 03:45:30;;;;;;;32.20;26.20;;;;;;;9.25;89.87;101020.84;100091;1288;107425;-78
2022/10/28 03:47:57;;;;;;;33.40;26.90;;;;;;;9.24;90.08;101014.10;99936;1287;209058;-78
2022/10/28 03:50:25;;;;;;;30.60;25.70;;;;;;;9.23;90.13;101010.11;100086;1287;108924;-78
2022/10/28 03:52:52;;;;;;;34.30;26.60;;;;;;;9.21;90.18;101012.41;100064;1281;98522;-78
2022/10/28 03:55:19;;;;;;;30.30;26.60;;;;;;;9.20;90.31;101010.69;99935;1294;138552;-78
2022/10/28 03:57:46;;;;;;;32.30;27.60;;;;;;;9.19;90.41;101009.66;99990;1288;106836;-78
2022/10/28 04:00:16;;;;;;;33.30;27.80;;;;;;;9.18;90.53;101006.21;99997;1295;138022;-77
2022/10/28 04:02:43;;;;;;;32.30;27.70;;;;;;;9.16;90.61;101005.02;101542;1295;107347;-78
2022/10/28 04:05:10;;;;;;;33.80;27.10;;;;;;;9.14;90.58;101000.34;100146;1286;96486;-78
2022/10/28 04:07:37;;;;;;;33.40;27.30;;;;;;;9.12;90.65;101001.24;100034;1292;137853;-78
2022/10/28 04:10:05;;;;;;;34.20;28.20;;;;;;;9.09;90.80;101002.32;100062;1287;108206;-75
2022/10/28 04:12:32;;;;;;;33.50;28.10;;;;;;;9.06;90.73;101009.14;101484;1294;138195;-76
2022/10/28 04:15:00;;;;;;;33.20;27.00;;;;;;;9.04;90.86;101012.29;100443;1292;107527;-76
2022/10/28 04:17:27;;;;;;;33.50;27.40;;;;;;;9.02;91.00;101014.58;99958;1281;138295;-77
2022/10/28 04:19:54;;;;;;;33.20;27.70;;;;;;;9.02;91.08;101015.10;100905;1295;108576;-76
2022/10/28 04:22:21;;;;;;;37.70;28.60;;;;;;;9.02;91.11;101012.85;101549;1295;107495;-77
2022/10/28 04:24:48;;;;;;;35.10;27.80;;;;;;;9.01;91.32;101017.72;101439;1294;139580;-76
2022/10/28 04:27:16;;;;;;;33.20;27.90;;;;;;;9.00;91.41;101014.44;100659;1296;108306;-77
2022/10/28 04:29:42;;;;;;;33.40;27.50;;;;;;;8.99;91.38;101013.05;99999;1288;139964;-78
2022/10/28 04:32:10;;;;;;;31.10;27.30;;;;;;;9.00;91.50;101010.27;100034;1288;110080;-77
2022/10/28 04:34:37;;;;;;;33.20;27.80;;;;;;;9.01;91.62;101012.00;100087;1294;107782;-77
2022/10/28 04:37:04;;;;;;;33.60;27.10;;;;;;;9.02;91.70;101006.27;100010;1288;138266;-77
2022/10/28 04:39:32;;;;;;;37.20;26.70;;;;;;;9.02;91.80;101007.81;100066;1296;105649;-77
2022/10/28 04:41:59;;;;;;;31.00;25.90;;;;;;;9.04;91.80;101010.05;99994;1289;138402;-78
2022/10/28 04:44:26;;;;;;;30.20;23.30;;;;;;;9.07;91.76;101008.27;100061;1288;109883;-78
2022/10/28 04:46:55;;;;;;;28.60;22.50;;;;;;;9.09;91.65;101004.41;100002;1289;108790;-76
2022/10/28 04:49:22;;;;;;;28.00;22.50;;;;;;;9.15;91.74;100996.71;101022;1289;138216;-77
2022/10/28 04:51:50;;;;;;;28.60;22.00;;;;;;;9.19;91.53;100993.52;101568;1295;108796;-78
2022/10/28 04:54:17;;;;;;;27.80;22.60;;;;;;;9.21;91.31;100989.85;101381;1291;138385;-78
2022/10/28 04:56:44;;;;;;;24.30;20.20;;;;;;;9.23;91.26;100984.61;101586;1289;108576;-81
2022/10/28 04:59:11;;;;;;;29.00;21.20;;;;;;;9.27;91.22;100988.70;101565;1285;108521;-79
2022/10/28 05:01:39;;;;;;;27.10;20.70;;;;;;;9.31;91.17;100986.20;101398;1289;138286;-77
2022/10/28 05:04:06;;;;;;;30.30;21.20;;;;;;;9.36;91.25;100983.39;100220;1288;107506;-80
2022/10/28 05:06:33;;;;;;;27.30;21.10;;;;;;;9.40;91.29;100987.98;99870;1287;140074;-78
2022/10/28 05:09:00;;;;;;;30.30;20.90;;;;;;;9.45;91.34;100990.69;100089;1294;110565;-80
2022/10/28 05:11:27;;;;;;;26.20;20.80;;;;;;;9.49;91.16;100990.27;99961;1289;140115;-69
2022/10/28 05:13:54;;;;;;;25.20;20.90;;;;;;;9.52;91.21;100984.51;100166;1294;96548;-69
2022/10/28 05:16:21;;;;;;;28.10;22.50;;;;;;;9.57;91.08;100978.00;99997;1289;107363;-69
2022/10/28 05:18:49;;;;;;;32.30;21.50;;;;;;;9.60;91.05;100976.90;100038;1294;138180;-71
2022/10/28 05:21:16;;;;;;;26.40;21.40;;;;;;;9.63;90.85;100976.16;100189;1294;108643;-78
2022/10/28 05:23:43;;;;;;;28.80;22.10;;;;;;;9.62;90.53;100976.52;100036;1289;139854;-78
2022/10/28 05:26:10;;;;;;;28.20;22.00;;;;;;;9.60;90.35;100976.22;101221;1287;95667;-79
2022/10/28 05:28:37;;;;;;;28.00;21.20;;;;;;;9.55;90.17;100975.08;100037;1295;107119;-79
2022/10/28 05:31:04;;;;;;;28.60;21.30;;;;;;;9.53;90.06;100970.96;100038;1295;139846;-79
2022/10/28 05:33:32;;;;;;;30.00;22.10;;;;;;;9.51;90.15;100970.10;101165;1296;110001;-82
2022/10/28 05:36:01;;;;;;;28.10;21.80;;;;;;;9.50;90.07;100968.38;101499;1282;138397;-82
2022/10/28 05:38:28;;;;;;;28.90;21.30;;;;;;;9.49;90.09;100968.75;101652;1281;95520;-81
2022/10/28 05:40:55;;;;;;;30.30;22.40;;;;;;;9.48;90.11;100969.98;100239;1289;106342;-81
2022/10/28 05:43:22;;;;;;;29.00;20.50;;;;;;;9.46;90.08;100967.40;100007;1290;138948;-82
2022/10/28 05:45:55;;;;;;;27.00;20.50;;;;;;;9.46;90.19;100969.15;100205;1291;108681;-81
2022/10/28 05:48:22;;;;;;;29.30;22.60;;;;;;;9.48;90.31;100968.24;100017;1288;138290;-82
2022/10/28 05:50:50;;;;;;;27.90;21.00;;;;;;;9.51;90.36;100969.06;100097;1289;96471;-75
2022/10/28 05:53:17;;;;;;;30.60;22.20;;;;;;;9.53;90.34;100962.80;99989;1288;107414;-80
2022/10/28 05:55:44;;;;;;;28.60;22.00;;;;;;;9.56;90.43;100958.40;99924;1292;137987;-75
2022/10/28 05:58:14;;;;;;;27.00;20.60;;;;;;;9.61;90.45;100956.58;100017;1288;110399;-78
2022/10/28 06:00:41;;;;;;;27.80;20.90;;;;;;;9.66;90.47;100956.65;99926;1288;138303;-78
2022/10/28 06:03:11;;;;;;;27.30;21.50;;;;;;;9.72;90.24;100960.06;100144;1295;96947;-79
2022/10/28 06:05:39;;;;;;;31.80;21.30;;;;;;;9.77;90.12;100962.39;100050;1289;138488;-78
2022/10/28 06:08:07;;;;;;;33.10;20.40;;;;;;;9.81;89.94;100963.35;100698;1289;97063;-79
2022/10/28 06:10:34;;;;;;;29.00;20.70;;;;;;;9.85;89.93;100959.45;100491;1280;112037;-84
2022/10/28 06:13:02;;;;;;;25.90;19.90;;;;;;;9.91;89.78;100962.50;99870;1287;140487;-82
2022/10/28 06:15:29;;;;;;;29.50;21.60;;;;;;;9.98;89.77;100965.64;100123;1281;96981;-84
2022/10/28 06:17:56;;;;;;;29.00;20.70;;;;;;;10.07;89.65;100962.36;99963;1295;138467;-84
2022/10/28 06:20:23;;;;;;;30.40;22.20;;;;;;;10.15;89.43;100959.08;99942;1296;96479;-83
2022/10/28 06:22:52;;;;;;;26.70;21.30;;;;;;;10.23;89.26;100955.83;99932;1295;111768;-83
2022/10/28 06:25:21;;;;;;;25.70;20.70;;;;;;;10.31;89.04;100952.39;99903;1281;138398;-83
2022/10/28 06:27:54;;;;;;;31.90;21.60;;;;;;;10.36;88.78;100950.70;100003;1288;96961;-81
2022/10/28 06:30:23;;;;;;;28.80;20.90;;;;;;;10.43;88.58;100946.05;99832;1289;138429;-85
2022/10/28 06:32:50;;;;;;;31.60;20.70;;;;;;;10.49;88.44;100952.00;100113;1281;96350;-83
2022/10/28 06:35:17;;;;;;;28.00;21.30;;;;;;;10.56;88.28;100949.23;100051;1281;110171;-82
2022/10/28 06:37:45;;;;;;;34.70;21.60;;;;;;;10.65;88.20;100946.99;100119;1289;108201;-84
2022/10/28 06:40:12;;;;;;;27.60;21.60;;;;;;;10.80;87.98;100950.30;100013;1294;96996;-85
2022/10/28 06:42:40;;;;;;;32.20;22.00;;;;;;;10.93;87.75;100945.84;99905;1279;139577;-82
2022/10/28 06:45:09;;;;;;;33.10;22.10;;;;;;;11.10;87.56;100951.55;100044;1289;96620;-84
2022/10/28 06:47:36;;;;;;;34.20;21.60;;;;;;;11.29;87.28;100953.52;99923;1287;139965;-84
2022/10/28 06:50:08;;;;;;;32.60;21.00;;;;;;;11.52;87.19;100955.23;99952;1281;108770;-84
2022/10/28 06:52:36;;;;;;;27.40;19.70;;;;;;;11.85;87.11;100952.15;100067;1291;96567;-84
2022/10/28 06:55:03;;;;;;;28.80;20.40;;;;;;;12.18;86.25;100953.02;99942;1281;138362;-85
2022/10/28 06:57:32;;;;;;;27.90;20.70;;;;;;;12.47;85.42;100951.84;99951;1285;97132;-85
2022/10/28 07:00:00;;;;;;;30.10;20.60;;;;;;;12.81;84.63;100954.88;99944;1288;139867;-82
2022/10/28 07:02:29;;;;;;;29.60;19.90;;;;;;;13.08;83.40;100960.69;99983;1280;107649;-84
2022/10/28 07:04:57;;;;;;;25.50;20.50;;;;;;;13.32;82.58;100963.60;99927;1287;95421;-82
2022/10/28 07:07:24;;;;;;;30.40;21.20;;;;;;;13.59;81.64;100959.59;99915;1295;138315;-84
2022/10/28 07:09:51;;;;;;;25.90;19.80;;;;;;;13.80;80.80;100965.84;100077;1282;96616;-79
2022/10/28 07:12:18;;;;;;;31.20;21.20;;;;;;;14.01;80.17;100968.48;99926;1287;138198;-81
2022/10/28 07:14:45;;;;;;;26.80;21.10;;;;;;;14.19;79.48;100968.89;99968;1289;108757;-76
2022/10/28 07:17:12;;;;;;;27.80;20.30;;;;;;;14.32;78.97;100964.55;100156;1289;96378;-81
2022/10/28 07:19:39;;;;;;;26.40;20.10;;;;;;;14.50;78.48;100962.54;99823;1289;139105;-78
2022/10/28 07:22:06;;;;;;;29.10;21.30;;;;;;;14.62;77.74;100961.20;99983;1287;96365;-80
2022/10/28 07:24:34;;;;;;;27.10;20.40;;;;;;;14.80;77.27;100958.23;99941;1289;139040;-79
2022/10/28 07:27:02;;;;;;;28.90;20.30;;;;;;;15.08;76.74;100950.14;99952;1290;106795;-80
2022/10/28 07:29:29;;;;;;;25.60;18.90;;;;;;;15.46;75.85;100948.81;99862;1287;140155;-80
2022/10/28 07:31:57;;;;;;;24.30;19.90;;;;;;;15.87;74.95;100944.46;99971;1281;107899;-76
2022/10/28 07:34:24;;;;;;;24.10;19.20;;;;;;;16.11;74.08;100941.82;99895;1289;96454;-82
2022/10/28 07:36:55;;;;;;;24.00;19.80;;;;;;;16.28;73.24;100937.20;99923;1288;137450;-82
2022/10/28 07:39:22;;;;;;;24.10;20.00;;;;;;;16.41;73.02;100937.35;99940;1289;108368;-81
2022/10/28 07:41:50;;;;;;;28.80;21.20;;;;;;;16.64;72.52;100933.31;99975;1288;137652;-82
2022/10/28 07:44:17;;;;;;;27.00;20.30;;;;;;;16.83;72.26;100931.56;99946;1288;111707;-83
2022/10/28 07:46:44;;;;;;;27.80;20.80;;;;;;;16.78;71.59;100932.16;99931;1289;96466;-82
2022/10/28 07:49:12;;;;;;;28.50;22.20;;;;;;;16.64;71.57;100937.52;99919;1287;139016;-82
2022/10/28 07:51:39;;;;;;;27.60;21.30;;;;;;;16.56;71.51;100939.27;99962;1281;109418;-84
2022/10/28 07:54:06;;;;;;;29.00;21.90;;;;;;;16.56;71.48;100935.96;99910;1287;137540;-83
2022/10/28 07:56:34;;;;;;;29.60;20.50;;;;;;;16.87;71.47;100934.17;100026;1288;108032;-83
2022/10/28 07:59:01;;;;;;;30.00;22.20;;;;;;;17.35;70.99;100929.75;99997;1288;96391;-84
2022/10/28 08:01:29;;;;;;;29.10;20.50;;;;;;;17.88;69.96;100925.17;99958;1282;138069;-81
2022/10/28 08:03:56;;;;;;;31.60;21.00;;;;;;;18.22;68.89;100920.38;99935;1287;107192;-81
2022/10/28 08:06:24;;;;;;;27.50;20.70;;;;;;;18.35;68.19;100915.09;99925;1288;137745;-83
2022/10/28 08:08:55;;;;;;;26.60;21.00;;;;;;;18.20;67.66;100913.64;100000;1279;108855;-76
2022/10/28 08:11:23;;;;;;;27.00;22.10;;;;;;;17.94;67.89;100923.81;101621;1296;94444;-83
2022/10/28 08:13:51;;;;;;;30.80;21.10;;;;;;;17.76;68.16;100922.23;101648;1288;109361;-81
2022/10/28 08:16:19;;;;;;;29.00;22.60;;;;;;;17.54;68.48;100918.24;101558;1288;107584;-82
2022/10/28 08:18:46;;;;;;;29.60;22.70;;;;;;;17.35;68.46;100921.30;101420;1289;138309;-76
2022/10/28 08:21:15;;;;;;;28.90;23.20;;;;;;;17.18;68.63;100923.86;100093;1289;108019;-82
2022/10/28 08:23:45;;;;;;;27.60;22.60;;;;;;;17.07;68.67;100919.36;99947;1287;137902;-78
2022/10/28 08:26:13;;;;;;;36.50;23.90;;;;;;;17.09;68.86;100918.88;100125;1288;108451;-80
2022/10/28 08:28:41;;;;;;;31.10;22.80;;;;;;;17.42;69.27;100916.02;100005;1282;105955;-82
2022/10/28 08:31:08;;;;;;;30.90;23.30;;;;;;;17.86;68.59;100912.75;99921;1288;137702;-81
2022/10/28 08:33:36;;;;;;;34.30;23.40;;;;;;;18.20;68.07;100903.42;99924;1281;107816;-81
2022/10/28 08:36:04;;;;;;;27.80;22.90;;;;;;;18.20;67.03;100905.38;99870;1288;137981;-84
2022/10/28 08:38:31;;;;;;;29.50;21.90;;;;;;;18.03;66.78;100907.28;100010;1287;111060;-84
2022/10/28 08:41:08;;;;;;;26.40;22.50;;;;;;;17.80;66.70;100914.99;100062;1295;106791;-82
2022/10/28 08:43:45;;;;;;;30.30;22.60;;;;;;;17.54;67.22;100908.74;99947;1289;137583;-83
2022/10/28 08:46:32;;;;;;;29.40;22.30;;;;;;;17.39;67.77;100908.64;101032;1296;105564;-82
2022/10/28 08:49:03;;;;;;;32.20;24.10;;;;;;;17.18;67.68;100905.80;101486;1295;137811;-81
2022/10/28 08:51:38;;;;;;;29.70;23.10;;;;;;;17.01;68.07;100910.31;100871;1289;109868;-82
2022/10/28 08:54:13;;;;;;;32.70;24.00;;;;;;;17.06;68.27;100905.33;101472;1280;139305;-82
2022/10/28 08:56:44;;;;;;;30.20;23.40;;;;;;;17.41;68.95;100905.71;100787;1289;97235;-81
2022/10/28 08:59:17;;;;;;;31.90;23.10;;;;;;;17.84;68.93;100899.68;100054;1289;108719;-81
2022/10/28 09:01:49;;;;;;;29.20;22.00;;;;;;;18.38;69.25;100893.30;100918;1282;137670;-82
2022/10/28 09:04:26;;;;;;;28.20;20.80;;;;;;;19.02;68.05;100895.73;100155;1289;109765;-78
2022/10/28 09:06:54;;;;;;;27.10;21.70;;;;;;;19.56;67.03;100897.55;101301;1291;138219;-84
2022/10/28 09:12:48;;;;;;;28.90;22.20;;;;;;;20.42;64.38;100893.56;101078;1296;138586;-77
2022/10/28 09:15:40;;;;;;;28.60;22.00;;;;;;;20.74;63.76;100886.71;100088;1281;96448;-75
2022/10/28 09:18:18;;;;;;;30.00;21.60;;;;;;;21.06;62.68;100887.81;100964;1289;137890;-74
2022/10/28 09:20:53;;;;;;;27.20;21.20;;;;;;;21.33;62.36;100893.14;100097;1294;108147;-74
2022/10/28 09:23:24;;;;;;;33.40;20.20;;;;;;;21.38;61.67;100895.10;100968;1296;94586;-71
2022/10/28 09:25:58;;;;;;;25.90;20.80;;;;;;;21.16;60.96;100893.88;101603;1288;107677;-71
2022/10/28 09:28:41;;;;;;;29.00;20.90;;;;;;;20.91;61.21;100894.79;101610;1296;94553;-71
2022/10/28 09:31:34;;;;;;;29.00;20.20;;;;;;;20.93;60.63;100895.94;101372;1288;138543;-72
2022/10/28 09:34:30;;;;;;;26.10;20.90;;;;;;;20.96;60.36;100893.27;100368;1292;108659;-73
2022/10/28 09:37:02;;;;;;;24.90;19.80;;;;;;;20.94;60.26;100883.33;100010;1290;138871;-74
2022/10/28 09:39:37;;;;;;;32.60;19.60;;;;;;;21.08;61.22;100880.46;100127;1295;107652;-74
2022/10/28 09:42:05;;;;;;;25.40;19.00;;;;;;;21.48;60.65;100882.38;100721;1289;137991;-73
2022/10/28 09:44:55;;;;;;;28.60;20.00;;;;;;;21.70;61.00;100884.23;101594;1288;109680;-73
2022/10/28 09:47:27;;;;;;;27.10;20.50;;;;;;;21.70;59.77;100887.48;101606;1288;107263;-72
2022/10/28 09:50:01;;;;;;;26.70;20.40;;;;;;;21.42;59.31;100886.17;101630;1288;94901;-72
2022/10/28 09:52:34;;;;;;;28.20;21.40;;;;;;;21.14;59.17;100882.71;100516;1288;107802;-73
2022/10/28 09:55:07;;;;;;;26.00;20.30;;;;;;;20.98;59.69;100879.52;99973;1287;137724;-73
2022/10/28 09:57:34;;;;;;;24.80;19.30;;;;;;;21.06;60.11;100877.88;100141;1295;109947;-72
2022/10/28 10:00:02;;;;;;;30.60;19.60;;;;;;;21.32;60.33;100880.13;99951;1288;137902;-72
2022/10/28 10:02:39;;;;;;;28.60;20.20;;;;;;;21.52;60.01;100880.39;100090;1288;96767;-72
2022/10/28 10:05:14;;;;;;;32.40;20.60;;;;;;;21.64;58.91;100878.68;100176;1285;107809;-72
2022/10/28 10:07:49;;;;;;;25.10;19.60;;;;;;;21.54;58.72;100877.02;99978;1282;137520;-72
2022/10/28 10:10:22;;;;;;;25.80;20.10;;;;;;;21.42;58.59;100871.86;100103;1289;109883;-72
2022/10/28 10:12:49;;;;;;;27.40;20.30;;;;;;;21.38;58.91;100867.87;100011;1291;138692;-72
2022/10/28 10:15:26;;;;;;;27.50;18.40;;;;;;;21.47;59.53;100864.95;100160;1289;96554;-72
2022/10/28 10:18:17;;;;;;;25.50;19.60;;;;;;;21.76;59.00;100859.64;100053;1279;137767;-72
2022/10/28 10:20:54;;;;;;;23.80;19.40;;;;;;;21.83;58.36;100857.58;100212;1289;96361;-70
2022/10/28 10:23:39;;;;;;;28.80;19.10;;;;;;;21.73;57.99;100862.80;100081;1295;138993;-71
2022/10/28 10:26:09;;;;;;;24.70;19.70;;;;;;;21.62;57.99;100864.43;100162;1287;107460;-70
2022/10/28 10:28:43;;;;;;;29.70;20.20;;;;;;;21.51;57.84;100869.14;100178;1288;96564;-71
2022/10/28 10:31:29;;;;;;;25.90;17.90;;;;;;;21.39;58.12;100865.67;99988;1283;138831;-70
2022/10/28 10:33:58;;;;;;;25.00;19.40;;;;;;;21.32;58.13;100864.39;100065;1288;96566;-72
2022/10/28 10:36:51;;;;;;;25.70;19.40;;;;;;;21.29;58.51;100864.27;100034;1294;137691;-70
2022/10/28 10:39:38;;;;;;;27.30;19.60;;;;;;;21.28;58.62;100862.32;100141;1288;109265;-72
2022/10/28 10:42:17;;;;;;;28.30;18.00;;;;;;;21.22;58.73;100855.70;100028;1287;137878;-71
2022/10/28 10:45:20;;;;;;;27.90;18.60;;;;;;;21.22;59.01;100850.75;100177;1295;106090;-72
2022/10/28 10:47:47;;;;;;;26.60;19.80;;;;;;;21.27;59.29;100843.99;100030;1279;137847;-71
2022/10/28 10:50:28;;;;;;;24.30;18.00;;;;;;;21.21;58.77;100841.39;100029;1287;110376;-71
2022/10/28 10:53:02;;;;;;;25.40;18.40;;;;;;;21.11;58.79;100833.04;99990;1295;108757;-71
2022/10/28 10:55:52;;;;;;;27.20;18.20;;;;;;;21.01;59.07;100834.59;99991;1288;137847;-70
2022/10/28 10:58:22;;;;;;;25.80;18.40;;;;;;;20.95;59.03;100834.83;100134;1287;107927;-71
2022/10/28 11:00:52;;;;;;;27.60;18.80;;;;;;;20.90;59.18;100831.45;101521;1295;138394;-72
2022/10/28 11:03:21;;;;;;;23.30;17.30;;;;;;;20.87;59.41;100825.09;100321;1288;110116;-72
2022/10/28 11:05:55;;;;;;;26.30;18.60;;;;;;;20.82;59.18;100821.73;99933;1288;137899;-72
2022/10/28 11:08:44;;;;;;;27.30;19.20;;;;;;;20.67;59.26;100822.00;100236;1291;97247;-78
2022/10/28 11:11:20;;;;;;;25.40;17.80;;;;;;;20.59;59.53;100819.67;100151;1289;109426;-79
2022/10/28 11:13:48;;;;;;;25.40;18.10;;;;;;;20.51;59.52;100815.27;100034;1288;138025;-80
2022/10/28 11:16:34;;;;;;;28.90;17.20;;;;;;;20.42;59.77;100813.55;100087;1288;110229;-80
2022/10/28 11:19:20;;;;;;;29.60;18.20;;;;;;;20.28;59.79;100807.50;99931;1295;137992;-77
2022/10/28 11:22:01;;;;;;;25.90;17.70;;;;;;;20.11;60.02;100804.89;100131;1287;96469;-76
2022/10/28 11:24:43;;;;;;;27.50;17.70;;;;;;;20.00;60.18;100802.62;99985;1287;137816;-74